Time;durP1;ratioP1;P1;durP2;ratioP2;P2;SDS_P1;SDS_P2;PMS_P1;PMS_P2;Temp;Humidity;BMP_temperature;BMP_pressure;BME280_temperature;BME280_humidity;BME280_pressure;Samples;Min_cycle;Max_cycle;Signal;HPM_P1;HPM_P2
2022/11/17 00:00:00;;;;;;;16.55;10.18;;;;;;;8.74;98.68;92275.94;5091830;28;20024;-34
2022/11/17 00:02:26;;;;;;;19.50;10.73;;;;;;;8.79;98.09;92269.47;5091757;28;20023;-34
2022/11/17 00:04:51;;;;;;;19.45;10.07;;;;;;;8.81;98.02;92273.13;5091436;28;20101;-34
2022/11/17 00:07:17;;;;;;;13.55;8.65;;;;;;;8.86;97.17;92269.38;5091646;28;20032;-34
2022/11/17 00:09:42;;;;;;;14.90;9.30;;;;;;;8.86;97.33;92274.88;5091639;28;20439;-34
2022/11/17 00:14:54;;;;;;;15.77;8.57;;;;;;;8.82;97.73;92269.06;5091252;28;20051;-34
2022/11/17 00:17:20;;;;;;;13.63;8.57;;;;;;;8.86;97.36;92260.38;5091273;28;20040;-34
2022/11/17 00:22:33;;;;;;;12.52;8.40;;;;;;;8.74;97.84;92260.16;5091510;28;20088;-34
2022/11/17 00:24:58;;;;;;;15.25;8.43;;;;;;;8.80;97.99;92249.63;5090652;28;20467;-34
2022/11/17 00:27:23;;;;;;;19.77;9.57;;;;;;;8.75;98.03;92249.88;5091144;28;20055;-34
2022/11/17 00:29:49;;;;;;;17.60;9.43;;;;;;;8.75;98.23;92249.88;5090885;28;20035;-34
2022/11/17 00:34:59;;;;;;;12.90;8.60;;;;;;;8.71;98.97;92235.78;5091222;28;20035;-34
2022/11/17 00:37:26;;;;;;;16.67;8.77;;;;;;;8.72;98.64;92237.25;5091035;28;20020;-34
2022/11/17 00:39:52;;;;;;;19.52;9.57;;;;;;;8.72;98.44;92234.50;5091122;28;20421;-34
2022/11/17 00:42:17;;;;;;;12.32;8.43;;;;;;;8.62;98.50;92217.88;5091006;28;20028;-34
2022/11/17 00:44:43;;;;;;;18.70;9.80;;;;;;;8.63;98.64;92211.09;5091000;28;20476;-34
2022/11/17 00:47:08;;;;;;;17.67;9.60;;;;;;;8.53;99.52;92226.81;5090821;28;20030;-34
2022/11/17 00:49:35;;;;;;;16.77;9.48;;;;;;;8.49;100.00;92226.44;5090689;28;20024;-34
2022/11/17 00:52:01;;;;;;;11.23;7.60;;;;;;;8.54;100.00;92213.75;5090624;28;20032;-34
2022/11/17 00:54:26;;;;;;;13.13;8.52;;;;;;;8.56;100.00;92214.66;5090608;28;20039;-34
2022/11/17 00:56:51;;;;;;;15.48;8.30;;;;;;;8.57;99.85;92216.13;5090501;28;20059;-34
2022/11/17 00:59:17;;;;;;;15.15;9.00;;;;;;;8.62;99.45;92228.19;5090450;28;20032;-34
2022/11/17 01:01:44;;;;;;;14.23;8.05;;;;;;;8.59;99.26;92232.78;5090732;28;20027;-34
2022/11/17 01:04:11;;;;;;;14.38;7.65;;;;;;;8.59;99.61;92237.56;5090502;28;20028;-34
2022/11/17 01:06:55;;;;;;;14.15;7.50;;;;;;;8.60;99.46;92230.78;5090342;28;20024;-34
2022/11/17 01:09:22;;;;;;;10.73;6.50;;;;;;;8.72;98.74;92223.50;5090282;28;20055;-34
2022/11/17 01:11:49;;;;;;;12.35;6.63;;;;;;;8.70;98.03;92224.06;5090648;28;20031;-34
2022/11/17 01:14:17;;;;;;;9.00;6.40;;;;;;;8.75;97.39;92217.56;5090265;28;20111;-34
2022/11/17 01:16:43;;;;;;;14.13;7.82;;;;;;;8.79;97.95;92214.44;5090663;28;20051;-34
2022/11/17 01:19:10;;;;;;;12.43;7.85;;;;;;;8.86;97.47;92224.59;5090013;28;20076;-34
2022/11/17 01:21:36;;;;;;;10.13;6.90;;;;;;;8.86;97.01;92210.84;5090219;28;20498;-34
2022/11/17 01:24:01;;;;;;;9.40;6.35;;;;;;;8.87;96.78;92213.03;5090559;28;20023;-34
2022/11/17 01:26:29;;;;;;;13.15;7.55;;;;;;;8.88;96.77;92216.53;5089917;28;20108;-34
2022/11/17 01:28:55;;;;;;;11.13;7.93;;;;;;;8.90;96.41;92200.19;5090355;28;20044;-34
2022/11/17 01:31:24;;;;;;;13.05;8.65;;;;;;;8.99;96.20;92194.00;5090196;28;20027;-34
2022/11/17 01:33:49;;;;;;;15.13;8.68;;;;;;;9.01;95.92;92199.66;5090093;28;20515;-34
2022/11/17 01:36:20;;;;;;;14.73;9.25;;;;;;;8.93;96.04;92199.03;5090012;28;20027;-34
2022/11/17 01:38:45;;;;;;;12.40;8.05;;;;;;;8.98;96.09;92193.28;5090013;28;20484;-34
2022/11/17 01:41:20;;;;;;;18.10;10.27;;;;;;;9.02;95.62;92196.34;5090089;28;20038;-34
2022/11/17 01:43:46;;;;;;;12.10;7.85;;;;;;;9.01;95.66;92208.66;5090045;28;20028;-34
2022/11/17 01:46:34;;;;;;;15.55;9.13;;;;;;;9.08;95.44;92209.84;5090041;28;20081;-34
2022/11/17 01:49:14;;;;;;;17.85;8.18;;;;;;;9.06;95.10;92207.69;5071974;28;20107;-34
2022/11/17 01:51:44;;;;;;;14.38;9.20;;;;;;;9.06;95.15;92188.41;5090003;28;20454;-34
2022/11/17 01:54:12;;;;;;;15.05;9.27;;;;;;;9.01;95.53;92197.63;5089999;28;20024;-34
2022/11/17 01:56:43;;;;;;;11.13;7.53;;;;;;;9.01;95.38;92192.13;5071870;28;20036;-34
2022/11/17 01:59:20;;;;;;;14.30;8.30;;;;;;;9.04;95.22;92191.00;5071864;28;20500;-34
2022/11/17 02:01:56;;;;;;;15.27;8.43;;;;;;;9.07;94.65;92192.59;5075780;28;20024;-34
2022/11/17 02:04:43;;;;;;;12.40;8.02;;;;;;;9.02;94.64;92193.59;5093876;28;20028;-34
2022/11/17 02:07:20;;;;;;;19.48;8.80;;;;;;;8.94;94.69;92181.22;5075134;28;20032;-34
2022/11/17 02:09:45;;;;;;;14.15;8.23;;;;;;;8.91;95.23;92185.84;5075588;28;20115;-34
2022/11/17 02:12:12;;;;;;;15.30;8.00;;;;;;;8.87;95.30;92182.03;5075577;28;20051;-34
2022/11/17 02:14:38;;;;;;;16.17;7.38;;;;;;;8.80;96.54;92183.56;5075502;28;20085;-34
2022/11/17 02:17:05;;;;;;;12.15;7.75;;;;;;;8.80;96.76;92183.56;5093482;28;20032;-34
2022/11/17 02:19:43;;;;;;;10.80;7.43;;;;;;;8.68;97.64;92179.88;5075720;28;20646;-34
2022/11/17 02:22:19;;;;;;;13.45;8.68;;;;;;;8.73;96.54;92167.88;5093722;28;20104;-34
2022/11/17 02:25:21;;;;;;;11.80;7.60;;;;;;;8.69;97.13;92177.84;5093048;28;20039;-34
2022/11/17 02:28:08;;;;;;;11.13;8.05;;;;;;;8.67;97.66;92170.16;5093704;28;20043;-34
2022/11/17 02:30:55;;;;;;;13.90;8.70;;;;;;;8.73;97.47;92169.91;5093436;28;20431;-34
2022/11/17 02:33:55;;;;;;;18.95;9.50;;;;;;;8.72;97.46;92169.19;5075634;28;20059;-34
2022/11/17 02:36:29;;;;;;;14.85;8.20;;;;;;;8.73;97.43;92167.88;5075455;28;20043;-34
2022/11/17 02:38:59;;;;;;;18.90;10.00;;;;;;;8.81;97.00;92171.28;5075294;28;20028;-34
2022/11/17 02:41:34;;;;;;;13.43;8.95;;;;;;;8.82;97.00;92164.47;5075047;28;20549;-34
2022/11/17 02:44:12;;;;;;;13.88;8.00;;;;;;;8.82;96.91;92145.22;5093314;28;20028;-34
2022/11/17 02:46:56;;;;;;;11.20;7.15;;;;;;;8.92;95.91;92150.78;5075278;28;20412;-34
2022/11/17 02:49:28;;;;;;;9.30;6.68;;;;;;;8.92;95.18;92157.00;5074827;28;20020;-34
2022/11/17 02:51:56;;;;;;;11.50;7.05;;;;;;;8.79;95.50;92154.59;5075213;28;20028;-34
2022/11/17 02:54:23;;;;;;;12.43;6.88;;;;;;;8.89;95.42;92157.44;5075220;28;20028;-34
2022/11/17 02:56:49;;;;;;;11.48;6.72;;;;;;;8.89;95.29;92158.16;5092659;28;20020;-34
2022/11/17 02:59:17;;;;;;;9.98;6.18;;;;;;;8.84;95.78;92153.63;5092951;28;20068;-34
2022/11/17 03:01:54;;;;;;;15.30;7.07;;;;;;;8.83;95.70;92156.94;5092588;28;20024;-34
2022/11/17 03:04:42;;;;;;;10.48;6.93;;;;;;;8.79;96.33;92159.38;5092692;28;20032;-34
2022/11/17 03:07:20;;;;;;;17.70;7.28;;;;;;;8.82;95.97;92169.97;5074516;28;20028;-34
2022/11/17 03:10:00;;;;;;;11.32;6.55;;;;;;;8.82;95.33;92158.97;5092815;28;20097;-34
2022/11/17 03:12:37;;;;;;;14.15;6.82;;;;;;;8.87;95.59;92149.00;5074480;28;20024;-34
2022/11/17 03:15:30;;;;;;;12.50;6.72;;;;;;;8.93;95.05;92152.97;5092691;28;20024;-34
2022/11/17 03:18:18;;;;;;;11.00;7.50;;;;;;;8.87;95.29;92152.50;5092209;28;20051;-34
2022/11/17 03:20:54;;;;;;;10.77;7.07;;;;;;;8.86;95.00;92148.28;5092442;28;20450;-34
2022/11/17 03:23:49;;;;;;;11.77;6.25;;;;;;;8.94;95.02;92153.69;5092738;28;20024;-34
2022/11/17 03:26:20;;;;;;;12.73;7.47;;;;;;;8.95;94.41;92150.38;5092217;28;20035;-34
2022/11/17 03:28:45;;;;;;;11.38;6.65;;;;;;;8.92;93.32;92129.47;5074086;28;20038;-34
2022/11/17 03:31:12;;;;;;;10.43;6.28;;;;;;;9.05;92.74;92140.13;5054321;28;20111;-34
2022/11/17 03:33:38;;;;;;;8.25;5.90;;;;;;;8.97;92.82;92125.03;5054363;28;20032;-34
2022/11/17 03:36:11;;;;;;;9.73;6.07;;;;;;;9.07;92.52;92136.84;5071837;28;20480;-34
2022/11/17 03:38:59;;;;;;;12.40;6.53;;;;;;;9.08;92.76;92133.50;5053865;28;20024;-34
2022/11/17 03:41:29;;;;;;;11.35;7.13;;;;;;;9.09;92.58;92142.50;5040314;28;20043;-34
2022/11/17 03:43:54;;;;;;;;;;;;;;;9.13;92.29;92149.03;5054413;28;20516;-34
2022/11/17 03:46:21;;;;;;;8.45;5.97;;;;;;;9.10;92.17;92152.19;5054137;28;19909;-34
2022/11/17 03:48:56;;;;;;;11.50;6.03;;;;;;;9.12;92.32;92139.31;5053690;28;20034;-34
2022/11/17 03:51:26;;;;;;;13.30;6.97;;;;;;;9.12;91.49;92138.59;5054097;28;20428;-34
2022/11/17 03:53:53;;;;;;;8.98;5.90;;;;;;;9.15;90.89;92148.47;5071883;28;20079;-34
2022/11/17 03:56:30;;;;;;;8.30;6.03;;;;;;;9.15;91.26;92143.69;5071346;28;20029;-34
2022/11/17 03:59:02;;;;;;;11.80;6.28;;;;;;;9.16;91.58;92142.38;5088503;28;20028;-34
2022/11/17 04:01:28;;;;;;;11.15;6.30;;;;;;;9.13;91.92;92129.03;5073535;28;20057;-34
2022/11/17 04:03:54;;;;;;;7.47;6.07;;;;;;;9.12;91.87;92141.34;5073486;28;20067;-34
2022/11/17 04:06:19;;;;;;;10.43;6.25;;;;;;;9.11;91.67;92135.13;5091681;28;20028;-34
2022/11/17 04:08:45;;;;;;;9.55;6.50;;;;;;;9.04;91.81;92146.97;5091642;28;20035;-34
2022/11/17 04:16:38;;;;;;;10.70;7.28;;;;;;;8.99;93.07;92158.94;5091668;28;20092;-34
2022/11/17 04:19:03;;;;;;;19.38;7.47;;;;;;;8.95;94.16;92158.63;5090869;28;20524;-34
2022/11/17 04:21:29;;;;;;;11.90;7.43;;;;;;;8.90;94.68;92153.38;5091143;28;20039;-34
2022/11/17 04:23:56;;;;;;;13.68;7.40;;;;;;;8.91;95.03;92161.06;5090519;28;20024;-34
2022/11/17 04:29:06;;;;;;;11.13;6.82;;;;;;;8.92;95.44;92153.53;5091228;28;20490;-34
2022/11/17 04:31:31;;;;;;;10.85;7.07;;;;;;;8.89;96.39;92155.41;5091268;28;20028;-34
2022/11/17 04:34:02;;;;;;;13.02;8.63;;;;;;;8.86;96.56;92153.78;5090922;28;20038;-34
2022/11/17 04:36:29;;;;;;;15.55;8.70;;;;;;;8.75;97.79;92146.03;5090942;28;20035;-34
2022/11/17 04:38:57;;;;;;;12.15;7.82;;;;;;;8.75;98.59;92146.03;5090690;28;20058;-34
2022/11/17 04:44:09;;;;;;;14.27;9.13;;;;;;;8.69;99.28;92158.56;5090828;28;20523;-34
2022/11/17 04:46:36;;;;;;;14.95;9.40;;;;;;;8.65;99.72;92142.47;5090781;28;20119;-34
2022/11/17 04:49:02;;;;;;;16.67;9.52;;;;;;;8.60;100.00;92129.69;5090700;28;20020;-34
2022/11/17 04:51:28;;;;;;;15.10;9.10;;;;;;;8.55;100.00;92135.44;5090610;28;20024;-34
2022/11/17 04:53:54;;;;;;;13.10;8.07;;;;;;;8.56;100.00;92121.13;5090580;28;20028;-34
2022/11/17 04:56:21;;;;;;;15.35;8.35;;;;;;;8.60;100.00;92118.69;5090853;28;20024;-34
2022/11/17 04:58:47;;;;;;;15.23;8.65;;;;;;;8.64;100.00;92110.75;5090491;28;20027;-34
2022/11/17 05:01:12;;;;;;;14.70;8.43;;;;;;;8.60;100.00;92104.94;5090840;28;20110;-34
2022/11/17 05:03:41;;;;;;;15.35;9.20;;;;;;;8.67;100.00;92106.88;5090770;28;20097;-34
2022/11/17 05:06:07;;;;;;;23.48;10.55;;;;;;;8.70;100.00;92108.50;5090763;28;20047;-34
2022/11/17 05:08:35;;;;;;;14.48;9.57;;;;;;;8.70;100.00;92108.50;5090774;28;20385;-34
2022/11/17 05:13:44;;;;;;;14.55;8.90;;;;;;;8.74;99.67;92106.06;5090499;28;20085;-34
2022/11/17 05:18:54;;;;;;;14.75;9.25;;;;;;;8.66;100.00;92107.44;5090145;28;20451;-34
2022/11/17 05:21:19;;;;;;;11.93;8.43;;;;;;;8.64;100.00;92099.75;5090309;28;20032;-34
2022/11/17 05:23:54;;;;;;;12.88;8.88;;;;;;;8.61;100.00;92100.91;5090534;28;20032;-34
2022/11/17 05:26:21;;;;;;;16.90;8.88;;;;;;;8.57;100.00;92095.09;5090216;28;20059;-34
2022/11/17 05:28:47;;;;;;;15.52;9.65;;;;;;;8.60;100.00;92102.19;5072566;28;20027;-34
2022/11/17 05:31:13;;;;;;;27.60;8.93;;;;;;;8.59;100.00;92103.50;5090192;28;20024;-34
2022/11/17 05:33:39;;;;;;;19.48;10.68;;;;;;;8.60;100.00;92104.22;5090922;28;20129;-34
2022/11/17 05:36:05;;;;;;;16.23;10.00;;;;;;;8.54;100.00;92101.72;5094290;28;20419;-34
2022/11/17 05:38:30;;;;;;;16.23;9.60;;;;;;;8.56;100.00;92093.59;5094520;28;20099;-34
2022/11/17 05:40:56;;;;;;;20.90;11.18;;;;;;;8.48;100.00;92103.25;5094220;28;20471;-34
2022/11/17 05:43:21;;;;;;;15.10;9.52;;;;;;;8.38;100.00;92103.19;5094216;28;20036;-34
2022/11/17 05:45:47;;;;;;;18.02;10.10;;;;;;;8.31;100.00;92079.25;5094453;28;20028;-34
2022/11/17 05:48:13;;;;;;;14.30;9.75;;;;;;;8.46;100.00;92100.34;5094204;28;20551;-34
2022/11/17 05:50:38;;;;;;;15.43;10.18;;;;;;;8.49;100.00;92099.22;5093941;28;20032;-34
2022/11/17 05:53:04;;;;;;;16.15;9.45;;;;;;;8.54;100.00;92101.72;5094293;28;20023;-34
2022/11/17 05:55:29;;;;;;;15.45;10.05;;;;;;;8.52;100.00;92101.53;5094249;28;20490;-34
2022/11/17 05:57:58;;;;;;;14.93;9.07;;;;;;;8.53;100.00;92094.75;5094186;28;20093;-34
2022/11/17 06:00:24;;;;;;;17.73;11.05;;;;;;;8.64;100.00;92099.03;5093948;28;20031;-34
2022/11/17 06:02:54;;;;;;;17.55;10.27;;;;;;;8.62;100.00;92082.38;5094024;28;20035;-34
2022/11/17 06:05:22;;;;;;;15.45;8.93;;;;;;;8.66;100.00;92090.94;5075743;28;20035;-34
2022/11/17 06:07:49;;;;;;;16.52;8.95;;;;;;;8.68;100.00;92083.56;5076043;28;20035;-34
2022/11/17 06:10:14;;;;;;;12.98;8.82;;;;;;;8.67;100.00;92092.38;5094037;28;20106;-34
2022/11/17 06:12:39;;;;;;;12.30;7.90;;;;;;;8.65;100.00;92081.22;5093686;28;20070;-34
2022/11/17 06:15:05;;;;;;;14.73;9.18;;;;;;;8.63;100.00;92094.81;5093525;28;20027;-34
2022/11/17 06:17:36;;;;;;;20.27;10.68;;;;;;;8.58;100.00;92107.53;5093537;28;20044;-34
2022/11/17 06:20:03;;;;;;;17.92;9.88;;;;;;;8.45;100.00;92107.84;5093531;28;20115;-34
2022/11/17 06:22:29;;;;;;;18.00;9.88;;;;;;;8.44;100.00;92092.66;5093571;28;20019;-34
2022/11/17 06:24:55;;;;;;;16.98;8.75;;;;;;;8.44;100.00;92098.16;5093151;28;20028;-34
2022/11/17 06:27:21;;;;;;;12.90;8.02;;;;;;;8.49;100.00;92099.22;5093703;28;20032;-34
2022/11/17 06:29:47;;;;;;;15.55;9.05;;;;;;;8.49;100.00;92099.94;5093528;28;20029;-34
2022/11/17 06:32:14;;;;;;;20.33;9.77;;;;;;;8.58;100.00;92107.53;5093341;28;20031;-34
2022/11/17 06:34:40;;;;;;;14.77;8.95;;;;;;;8.60;100.00;92107.69;5075601;28;20389;-34
2022/11/17 06:37:05;;;;;;;13.85;9.13;;;;;;;8.64;100.00;92119.00;5093084;28;20527;-34
2022/11/17 06:39:31;;;;;;;13.48;8.38;;;;;;;8.68;100.00;92121.34;5093126;28;20052;-34
2022/11/17 06:41:56;;;;;;;18.67;8.90;;;;;;;8.64;100.00;92119.00;5093212;28;20032;-34
2022/11/17 06:44:22;;;;;;;15.02;8.82;;;;;;;8.63;100.00;92120.31;5093057;28;20024;-34
2022/11/17 06:46:47;;;;;;;13.95;9.07;;;;;;;8.56;100.00;92112.88;5092279;28;20043;-34
2022/11/17 06:49:13;;;;;;;15.57;9.85;;;;;;;8.58;100.00;92117.78;5074884;28;20031;-34
2022/11/17 06:51:38;;;;;;;14.60;8.85;;;;;;;8.60;100.00;92121.44;5093250;28;20055;-34
2022/11/17 06:54:06;;;;;;;13.48;8.75;;;;;;;8.55;100.00;92127.19;5093160;28;20028;-34
2022/11/17 06:56:31;;;;;;;12.18;9.45;;;;;;;8.49;100.00;92132.94;5093137;28;20050;-34
2022/11/17 06:58:57;;;;;;;17.70;10.30;;;;;;;8.49;100.00;92135.69;5092971;28;20546;-34
2022/11/17 07:01:23;;;;;;;13.57;8.90;;;;;;;8.46;100.00;92136.09;5092778;28;20043;-34
2022/11/17 07:03:48;;;;;;;12.75;9.23;;;;;;;8.52;100.00;92144.81;5093023;28;20028;-34
2022/11/17 07:06:15;;;;;;;14.07;9.50;;;;;;;8.60;100.00;92146.19;5092614;28;20527;-34
2022/11/17 07:08:40;;;;;;;13.90;9.88;;;;;;;8.63;100.00;92149.84;5092547;28;20030;-34
2022/11/17 07:11:09;;;;;;;18.65;10.38;;;;;;;8.68;100.00;92152.38;5092526;28;20023;-34
2022/11/17 07:13:35;;;;;;;14.25;9.30;;;;;;;8.66;100.00;92156.97;5092526;28;20024;-34
2022/11/17 07:16:10;;;;;;;17.98;9.98;;;;;;;8.54;100.00;92153.25;5092496;28;20086;-34
2022/11/17 07:18:37;;;;;;;19.95;11.93;;;;;;;8.66;100.00;92170.72;5092290;28;20072;-34
2022/11/17 07:21:04;;;;;;;17.95;11.52;;;;;;;8.66;100.00;92185.22;5092316;28;20027;-34
2022/11/17 07:23:31;;;;;;;20.88;11.63;;;;;;;8.70;100.00;92190.31;5092341;28;20024;-34
2022/11/17 07:25:56;;;;;;;23.70;11.35;;;;;;;8.74;100.00;92199.63;5092264;28;20096;-34
2022/11/17 07:28:22;;;;;;;19.25;11.77;;;;;;;8.82;100.00;92192.00;5092226;28;20028;-34
2022/11/17 07:30:48;;;;;;;17.52;11.80;;;;;;;8.79;100.00;92195.88;5091981;28;20024;-34
2022/11/17 07:33:13;;;;;;;18.38;11.88;;;;;;;8.74;100.00;92190.63;5092458;28;20035;-34
2022/11/17 07:35:39;;;;;;;28.08;15.88;;;;;;;8.89;100.00;92231.75;5092155;28;20101;-34
2022/11/17 07:38:04;;;;;;;37.33;18.88;;;;;;;8.80;100.00;92255.13;5092209;28;20488;-34
2022/11/17 07:40:30;;;;;;;27.13;17.60;;;;;;;9.00;100.00;92253.28;5092026;28;20560;-34
2022/11/17 07:42:55;;;;;;;27.10;17.13;;;;;;;9.03;100.00;92268.66;5091859;28;20174;-34
2022/11/17 07:45:22;;;;;;;22.92;16.70;;;;;;;9.03;100.00;92266.63;5091898;28;20032;-34
2022/11/17 07:48:01;;;;;;;30.33;18.60;;;;;;;9.08;100.00;92240.16;5092173;28;20639;-34
2022/11/17 07:50:27;;;;;;;30.75;15.90;;;;;;;9.19;100.00;92234.16;5074574;28;20020;-34
2022/11/17 07:52:54;;;;;;;28.30;20.08;;;;;;;9.09;100.00;92219.59;5092055;28;20457;-34
2022/11/17 07:55:21;;;;;;;21.05;15.35;;;;;;;9.04;100.00;92213.03;5091727;28;20031;-34
2022/11/17 07:57:46;;;;;;;18.40;10.85;;;;;;;9.00;100.00;92228.50;5091018;28;20035;-34
2022/11/17 08:00:13;;;;;;;18.25;10.27;;;;;;;8.99;100.00;92224.28;5091903;28;20036;-34
2022/11/17 08:02:39;;;;;;;15.45;11.00;;;;;;;9.06;100.00;92213.19;5092048;28;20031;-34
2022/11/17 08:05:05;;;;;;;17.60;11.38;;;;;;;8.91;100.00;92177.59;5091394;28;20031;-34
2022/11/17 08:07:31;;;;;;;15.90;9.75;;;;;;;9.19;100.00;92187.31;5091707;28;20514;-34
2022/11/17 08:09:57;;;;;;;14.90;8.95;;;;;;;9.33;100.00;92204.97;5091801;28;20103;-34
2022/11/17 08:12:22;;;;;;;14.20;9.15;;;;;;;9.31;100.00;92201.31;5091365;28;20024;-34
2022/11/17 08:14:48;;;;;;;13.00;8.98;;;;;;;9.34;100.00;92189.88;5091521;28;20032;-34
2022/11/17 08:17:14;;;;;;;12.85;8.52;;;;;;;9.40;100.00;92195.16;5091105;28;20126;-34
2022/11/17 08:19:39;;;;;;;13.35;7.82;;;;;;;9.42;100.00;92196.00;5091488;28;20182;-34
2022/11/17 08:22:05;;;;;;;15.45;9.02;;;;;;;9.56;100.00;92191.59;5091534;28;20027;-34
2022/11/17 08:24:30;;;;;;;12.88;8.38;;;;;;;9.67;100.00;92193.84;5091094;28;20412;-34
2022/11/17 08:26:56;;;;;;;14.55;8.02;;;;;;;9.81;100.00;92213.50;5090756;28;20024;-34
2022/11/17 08:29:22;;;;;;;12.68;8.82;;;;;;;9.99;100.00;92217.63;5090912;28;20012;-34
2022/11/17 08:31:47;;;;;;;24.02;16.70;;;;;;;10.29;100.00;92225.44;5090962;28;20032;-34
2022/11/17 08:34:13;;;;;;;20.63;13.75;;;;;;;10.55;100.00;92221.16;5091027;28;20089;-34
2022/11/17 08:36:39;;;;;;;11.43;8.80;;;;;;;10.56;98.40;92234.38;5090849;28;20028;-34
2022/11/17 08:39:04;;;;;;;17.88;10.38;;;;;;;10.83;98.00;92239.78;5090797;28;20107;-34
2022/11/17 08:41:30;;;;;;;22.77;12.80;;;;;;;11.03;97.41;92240.53;5091090;28;20553;-34
2022/11/17 08:43:56;;;;;;;17.13;12.20;;;;;;;11.62;97.23;92256.50;5091085;28;20046;-34
2022/11/17 08:46:22;;;;;;;15.73;11.48;;;;;;;12.45;94.32;92246.41;5091084;28;20539;-34
2022/11/17 08:48:47;;;;;;;11.63;7.68;;;;;;;13.90;82.30;92239.22;5090957;28;20059;-34
2022/11/17 08:51:13;;;;;;;7.05;5.65;;;;;;;14.06;76.77;92238.16;5090724;28;20461;-34
2022/11/17 08:53:39;;;;;;;7.78;5.72;;;;;;;14.22;76.84;92241.22;5090964;28;20034;-35
2022/11/17 08:56:09;;;;;;;9.05;6.88;;;;;;;13.87;76.15;92249.47;5090668;28;20510;-34
2022/11/17 08:58:52;;;;;;;10.65;8.55;;;;;;;13.79;76.84;92251.75;5090853;28;20415;-34
2022/11/17 09:01:18;;;;;;;12.07;6.95;;;;;;;13.66;76.89;92243.97;5090461;28;20035;-34
2022/11/17 09:03:45;;;;;;;8.88;6.80;;;;;;;13.46;77.28;92232.34;5090649;28;20039;-34
2022/11/17 09:06:11;;;;;;;9.07;5.63;;;;;;;13.46;78.68;92229.56;5090677;28;20023;-34
2022/11/17 09:08:37;;;;;;;7.68;5.45;;;;;;;14.64;76.56;92240.31;5090387;28;20099;-34
2022/11/17 09:11:07;;;;;;;5.80;4.72;;;;;;;16.17;70.85;92230.28;5090618;28;20169;-34
2022/11/17 09:13:33;;;;;;;8.80;6.20;;;;;;;16.82;68.89;92231.66;5090497;28;20028;-34
2022/11/17 09:16:03;;;;;;;10.50;8.57;;;;;;;17.51;62.02;92235.84;5090365;28;20479;-34
2022/11/17 09:18:29;;;;;;;5.15;4.65;;;;;;;17.08;61.25;92229.47;5090094;28;20556;-34
2022/11/17 09:21:03;;;;;;;5.97;3.40;;;;;;;15.99;62.43;92218.16;5090188;28;20129;-34
2022/11/17 09:23:30;;;;;;;5.38;2.65;;;;;;;16.22;63.77;92204.06;5090475;28;20072;-34
2022/11/17 09:26:02;;;;;;;3.47;3.00;;;;;;;16.63;60.13;92195.81;5089862;28;20556;-34
2022/11/17 09:28:28;;;;;;;5.40;3.47;;;;;;;16.51;63.19;92193.13;5090619;28;20040;-34
2022/11/17 09:30:53;;;;;;;3.50;2.67;;;;;;;17.28;62.46;92203.31;5090072;28;20457;-34
2022/11/17 09:33:19;;;;;;;4.90;3.58;;;;;;;18.41;58.06;92210.78;5090185;28;20055;-35
2022/11/17 09:35:45;;;;;;;4.25;2.58;;;;;;;18.11;55.23;92199.63;5090140;28;20024;-35
2022/11/17 09:38:10;;;;;;;2.78;2.15;;;;;;;17.57;53.77;92177.53;5090004;28;20472;-35
2022/11/17 09:40:38;;;;;;;3.33;2.42;;;;;;;18.06;55.34;92203.59;5090171;28;20031;-35
2022/11/17 09:43:28;;;;;;;2.92;2.63;;;;;;;19.45;53.35;92195.06;5090030;28;20032;-35
2022/11/17 09:46:01;;;;;;;3.30;2.75;;;;;;;19.76;50.66;92194.94;5060255;28;20036;-35
2022/11/17 09:48:38;;;;;;;3.88;2.45;;;;;;;20.34;47.74;92174.13;5090323;28;20035;-35
2022/11/17 09:51:08;;;;;;;3.78;2.25;;;;;;;21.37;47.13;92181.38;5090261;28;20407;-35
2022/11/17 09:54:00;;;;;;;5.53;4.20;;;;;;;21.21;46.68;92185.69;5072062;28;20028;-35
2022/11/17 09:56:26;;;;;;;2.40;2.20;;;;;;;21.43;46.52;92181.56;5089995;28;20652;-35
2022/11/17 09:59:03;;;;;;;2.88;2.13;;;;;;;20.88;46.58;92172.59;5089836;28;20103;-35
2022/11/17 10:01:28;;;;;;;5.85;4.15;;;;;;;19.99;48.76;92174.16;5089910;28;20055;-35
2022/11/17 10:03:55;;;;;;;3.75;3.30;;;;;;;18.88;50.37;92167.47;5090228;28;20062;-35
2022/11/17 10:06:23;;;;;;;4.22;3.38;;;;;;;18.18;52.80;92175.50;5071934;28;20028;-35
2022/11/17 10:09:16;;;;;;;4.40;3.72;;;;;;;17.62;55.07;92167.28;5090045;28;20656;-35
2022/11/17 10:11:43;;;;;;;9.90;3.90;;;;;;;17.31;57.12;92174.16;5090075;28;20035;-35
2022/11/17 10:14:09;;;;;;;4.90;3.45;;;;;;;17.10;57.65;92171.00;5089789;28;20036;-35
2022/11/17 10:16:37;;;;;;;6.72;5.38;;;;;;;17.04;58.05;92168.66;5090148;28;20740;-34
2022/11/17 10:19:33;;;;;;;3.25;2.78;;;;;;;17.49;57.59;92176.38;5089406;28;20428;-35
2022/11/17 10:22:01;;;;;;;5.53;3.10;;;;;;;18.50;52.92;92179.06;5084057;28;20115;-35
2022/11/17 10:24:49;;;;;;;2.90;2.30;;;;;;;18.67;52.81;92176.34;5093575;28;20509;-35
2022/11/17 10:27:29;;;;;;;2.95;2.60;;;;;;;19.99;50.30;92183.25;5073225;28;20426;-35
2022/11/17 10:30:13;;;;;;;3.40;2.55;;;;;;;21.28;47.77;92173.31;5083106;28;20012;-35
2022/11/17 10:32:49;;;;;;;3.28;2.05;;;;;;;22.31;45.14;92166.13;5093331;28;20086;-35
2022/11/17 10:35:26;;;;;;;5.10;1.88;;;;;;;22.96;43.84;92169.50;5093321;28;20484;-35
2022/11/17 10:37:54;;;;;;;2.90;1.98;;;;;;;23.37;40.30;92162.19;5093265;28;20024;-35
2022/11/17 10:40:23;;;;;;;7.70;5.28;;;;;;;22.91;41.54;92170.06;5075564;28;20024;-35
2022/11/17 10:43:02;;;;;;;5.18;3.13;;;;;;;23.72;41.56;92170.84;5075487;28;20035;-35
2022/11/17 10:45:28;;;;;;;2.40;1.90;;;;;;;24.04;37.25;92166.03;5075432;28;20028;-35
2022/11/17 10:48:09;;;;;;;1.42;1.23;;;;;;;24.29;38.00;92163.78;5093134;28;20039;-35
2022/11/17 10:50:35;;;;;;;3.03;1.70;;;;;;;24.50;37.61;92160.75;5075114;28;20098;-35
2022/11/17 10:53:40;;;;;;;1.27;1.17;;;;;;;23.51;37.33;92152.00;5092882;28;20062;-35
2022/11/17 10:56:15;;;;;;;3.95;2.15;;;;;;;23.24;39.33;92167.47;4991021;28;20039;-35
2022/11/17 10:58:55;;;;;;;4.47;1.98;;;;;;;24.01;38.38;92170.19;4990962;28;20117;-34
2022/11/17 11:01:33;;;;;;;1.70;1.23;;;;;;;24.34;36.63;92165.31;5055195;28;20032;-35
2022/11/17 11:03:59;;;;;;;2.77;1.50;;;;;;;24.13;38.54;92154.97;5092848;28;20024;-35
2022/11/17 11:06:28;;;;;;;1.55;1.30;;;;;;;23.80;38.39;92168.22;5092976;28;20028;-35
2022/11/17 11:08:56;;;;;;;1.48;1.25;;;;;;;23.94;39.20;92174.22;5092630;28;20496;-34
2022/11/17 11:11:43;;;;;;;1.20;1.10;;;;;;;24.17;37.37;92167.03;5093002;28;20039;-35
2022/11/17 11:14:35;;;;;;;2.20;0.90;;;;;;;23.57;37.96;92173.97;5092825;28;20032;-35
2022/11/17 11:17:10;;;;;;;1.50;1.10;;;;;;;23.62;37.65;92175.50;5074547;28;20097;-34
2022/11/17 11:19:39;;;;;;;1.50;1.00;;;;;;;23.62;38.54;92169.88;5092455;28;20056;-34
2022/11/17 11:22:17;;;;;;;1.10;0.88;;;;;;;23.75;38.88;92168.81;5074743;28;20059;-35
2022/11/17 11:24:45;;;;;;;0.88;0.85;;;;;;;23.46;38.05;92175.81;5092352;28;20077;-35
2022/11/17 11:27:23;;;;;;;1.30;0.75;;;;;;;22.26;39.84;92175.84;5074381;28;20043;-35
2022/11/17 11:29:51;;;;;;;1.30;1.15;;;;;;;21.22;43.06;92184.34;5092414;28;20165;-35
2022/11/17 11:32:27;;;;;;;1.52;1.40;;;;;;;20.33;45.10;92176.22;5092032;28;20067;-35
2022/11/17 11:35:30;;;;;;;3.17;2.60;;;;;;;20.02;46.54;92181.97;5074174;28;20024;-35
2022/11/17 11:38:01;;;;;;;1.85;1.67;;;;;;;19.85;46.97;92182.72;5092049;28;20067;-34
2022/11/17 11:40:43;;;;;;;2.33;2.13;;;;;;;19.43;47.55;92189.38;5092062;28;20027;-34
2022/11/17 11:43:17;;;;;;;6.25;4.20;;;;;;;19.18;48.75;92182.03;5074143;28;20486;-35
2022/11/17 11:46:02;;;;;;;8.73;6.65;;;;;;;19.55;49.11;92179.41;5092268;28;20032;-34
2022/11/17 11:48:34;;;;;;;6.43;2.90;;;;;;;20.71;46.53;92178.97;5074163;28;20046;-34
2022/11/17 11:51:09;;;;;;;6.85;5.63;;;;;;;21.36;44.08;92171.50;5091772;28;20031;-35
2022/11/17 11:53:46;;;;;;;2.85;2.60;;;;;;;21.10;43.53;92168.50;5073816;28;20035;-35
2022/11/17 11:56:19;;;;;;;10.02;4.88;;;;;;;21.02;44.92;92178.72;5091750;28;20031;-35
2022/11/17 11:58:53;;;;;;;20.17;13.43;;;;;;;21.07;45.36;92167.00;5073945;28;20099;-35
2022/11/17 12:01:20;;;;;;;8.73;6.95;;;;;;;21.05;43.50;92164.13;5091669;28;20036;-35
2022/11/17 12:04:24;;;;;;;3.13;2.40;;;;;;;19.76;45.87;92180.22;5091880;28;20016;-35
2022/11/17 12:07:09;;;;;;;2.97;2.03;;;;;;;18.75;49.91;92189.97;5088395;28;20092;-35